Flight Track Log - Related Links

Times and Time Zones

All times are in EDT time to prevent confusion due to time zone crossing. See the FLG3563 flight status page for this flight to view local times or setup timezone preferences in your user account.


Time Position Orientation Groundspeed Altitude Reporting Facility
EDT Latitude Longitude Course Direction KTS MPH feet Rate Location/Type
Sun 10:44:10 AM 44.8500 -93.2333 133° Southeast 143 165 2,800  Level Minneapolis TRACON
Sun 10:45:10 AM 44.8167 -93.1833 133° Southeast 217 250 4,800 1,927 Climbing Minneapolis TRACON
Sun 10:46:27 AM 44.7661 -93.0822 125° Southeast 258 297 7,200 1,640 Climbing Minneapolis Center
Sun 10:47:29 AM 44.7083 -93.0078 138° Southeast 279 321 8,600 1,645 Climbing Minneapolis Center
Sun 10:48:31 AM 44.6489 -92.9333 138° Southeast 287 330 10,600 1,597 Climbing Minneapolis Center
Sun 10:49:33 AM 44.5753 -92.8272 134° Southeast 326 375 11,900 1,707 Climbing Minneapolis Center
Sun 10:50:34 AM 44.5150 -92.7283 131° Southeast 333 383 14,100 1,854 Climbing Minneapolis Center
Sun 10:51:36 AM 44.4550 -92.6317 131° Southeast 329 379 15,700 1,161 Climbing Minneapolis Center
Sun 10:52:38 AM 44.3925 -92.5331 132° Southeast 338 389 16,500 774 Climbing Minneapolis Center
Sun 10:53:40 AM 44.3297 -92.4244 129° Southeast 356 410 17,300 919 Climbing Minneapolis Center
Sun 10:54:42 AM 44.2761 -92.2983 121° Southeast 372 428 18,400 968 Climbing Minneapolis Center
Sun 10:55:44 AM 44.2114 -92.1483 121° Southeast 375 432 19,300 726 Climbing Minneapolis Center
Sun 10:56:46 AM 44.1544 -92.0175 121° Southeast 387 445 19,900 629 Climbing Minneapolis Center
Sun 10:57:48 AM 44.0958 -91.8864 122° Southeast 395 455 20,600 732 Climbing Minneapolis Center
Sun 10:58:49 AM 44.0397 -91.7547 121° Southeast 396 456 21,400 816 Climbing Minneapolis Center
Sun 10:59:53 AM 43.9778 -91.6164 122° Southeast 396 456 22,300 768 Climbing Minneapolis Center
Sun 11:00:54 AM 43.9197 -91.4867 122° Southeast 396 456 23,000 341 Climbing Minneapolis Center
Sun 11:01:56 AM 43.8464 -91.3733 132° Southeast 397 457 23,000 339 Level Minneapolis Center
Sun 11:02:58 AM 43.7683 -91.2675 136° Southeast 397 457 23,700 774 Climbing Minneapolis Center
Sun 11:04:00 AM 43.6764 -91.1369 134° Southeast 397 457 24,600 677 Climbing Minneapolis Center
Sun 11:05:02 AM 43.5989 -91.0314 135° Southeast 396 456 25,100 484 Climbing Minneapolis Center
Sun 11:06:04 AM 43.5200 -90.9203 134° Southeast 400 460 25,600 537 Climbing Minneapolis Center
Sun 11:07:05 AM 43.4403 -90.8117 135° Southeast 402 463 26,200 537 Climbing Minneapolis Center
Sun 11:08:07 AM 43.3600 -90.7019 135° Southeast 405 466 26,700 435 Climbing Minneapolis Center
Sun 11:09:09 AM 43.2794 -90.5914 135° Southeast 407 468 27,100 532 Climbing Minneapolis Center
Sun 11:10:11 AM 43.1808 -90.4583 135° Southeast 412 474 27,800 634 Climbing Minneapolis Center
Sun 11:11:12 AM 43.0994 -90.3478 135° Southeast 412 474 28,400 585 Climbing Minneapolis Center
Sun 11:12:14 AM 43.0158 -90.2358 136° Southeast 413 475 29,000 581 Climbing Minneapolis Center
Sun 11:13:16 AM 42.9350 -90.1272 135° Southeast 412 474 29,600 581 Climbing Minneapolis Center
Sun 11:14:18 AM 42.8569 -90.0219 135° Southeast 406 467 30,200 527 Climbing Minneapolis Center
Sun 11:15:44 AM 42.7408 -89.8661 135° Southeast 411 473 30,900 327 Climbing Chicago Center
Sun 11:16:45 AM 42.6589 -89.7578 136° Southeast 411 473 31,000 49 Climbing Chicago Center
Sun 11:17:47 AM 42.5586 -89.6253 136° Southeast 419 482 31,000  Level Chicago Center
Sun 11:18:49 AM 42.4708 -89.5106 136° Southeast 435 501 31,000  Level Chicago Center
Sun 11:19:51 AM 42.3822 -89.3958 136° Southeast 441 507 31,000  Level Chicago Center
Sun 11:20:53 AM 42.2933 -89.2786 136° Southeast 444 511 31,000  Level Chicago Center
Sun 11:21:55 AM 42.2053 -89.1642 136° Southeast 444 511 31,000  Level Chicago Center
Sun 11:22:57 AM 42.1153 -89.0475 136° Southeast 445 512 31,000  Level Chicago Center
Sun 11:23:59 AM 42.0206 -88.9228 136° Southeast 449 517 31,000  Level Chicago Center
Sun 11:25:00 AM 41.9306 -88.8089 137° Southeast 449 517 31,000 -146 Level Chicago Center
Sun 11:26:02 AM 41.8203 -88.6689 137° Southeast 450 518 30,700 -919 Descending Chicago Center
Sun 11:27:04 AM 41.7289 -88.5494 136° Southeast 457 526 29,100 -1,500 Descending Chicago Center
Sun 11:28:06 AM 41.6372 -88.4336 137° Southeast 457 526 27,600 -1,403 Descending Chicago Center
Sun 11:29:08 AM 41.5461 -88.3217 137° Southeast 451 519 26,200 -1,268 Descending Chicago Center
Sun 11:30:09 AM 41.4469 -88.2400 148° Southeast 427 491 25,000 -585 Descending Chicago Center
Sun 11:31:11 AM 41.3339 -88.1492 149° Southeast 406 467 25,000  Level Chicago Center
Sun 11:32:13 AM 41.2372 -88.0744 150° Southeast 407 468 25,000  Level Chicago Center
Sun 11:33:15 AM 41.1406 -87.9969 149° Southeast 408 470 25,000  Level Chicago Center
Sun 11:34:17 AM 41.0400 -87.9181 149° Southeast 418 481 25,000 -484 Level Chicago Center
Sun 11:35:19 AM 40.9411 -87.8386 149° Southeast 419 482 24,000 -976 Descending Chicago Center
Sun 11:36:20 AM 40.8442 -87.7631 149° Southeast 408 470 23,000 -1,366 Descending Chicago Center
Sun 11:37:22 AM 40.7458 -87.6503 139° Southeast 397 457 21,200 -1,500 Descending Chicago Center
Sun 11:38:24 AM 40.6708 -87.5494 134° Southeast 392 451 19,900 -1,113 Descending Chicago Center
Sun 11:39:26 AM 40.5975 -87.4506 134° Southeast 382 440 18,900 -968 Descending Chicago Center
Sun 11:40:28 AM 40.5225 -87.3561 136° Southeast 377 434 17,900 -968 Descending Chicago Center
Sun 11:41:30 AM 40.4456 -87.2525 134° Southeast 370 426 16,900 -1,024 Descending Chicago Center
Sun 11:42:31 AM 40.3731 -87.1550 134° Southeast 371 427 15,800 -1,073 Descending Chicago Center
Sun 11:43:33 AM 40.3017 -87.0606 135° Southeast 369 425 14,700 -1,065 Descending Chicago Center
Sun 11:44:35 AM 40.2308 -86.9669 135° Southeast 364 419 13,600 -1,210 Descending Chicago Center
Sun 11:45:37 AM 40.1619 -86.8756 135° Southeast 357 411 12,200 -1,258 Descending Chicago Center
Sun 11:46:39 AM 40.0800 -86.7697 135° Southeast 347 399 11,000 -581 Descending Chicago Center
Sun 11:47:41 AM 40.0144 -86.6836 135° Southeast 337 388 11,000 -387 Level Chicago Center
Sun 11:48:43 AM 39.9525 -86.6014 134° Southeast 315 362 10,200 -1,258 Descending Chicago Center
Sun 11:49:45 AM 39.8967 -86.5286 135° Southeast 288 331 8,400 -1,805 Descending Chicago Center
Sun 11:50:46 AM 39.8575 -86.4439 121° Southeast 286 329 6,500 -1,966 Descending Chicago Center
Sun 11:51:44 AM 39.8500 -86.3333 95° East 283 326 4,500 -1,322 Descending Indianapolis TRACON
Sun 11:52:44 AM 39.8500 -86.2333 90° East 244 281 3,900 -756 Descending Indianapolis TRACON
Sun 11:53:51 AM 39.8000 -86.1833 142° Southeast 185 213 2,900 -850 Descending Indianapolis TRACON
Sun 11:54:51 AM 39.7667 -86.2167 218° Southwest 170 196 2,100 -750 Descending Indianapolis TRACON
Sun 11:55:51 AM 39.7333 -86.2500 218° Southwest 138 159 1,400 -538 Descending Indianapolis TRACON
Sun 11:57:16 AM 39.6992 -86.3033 230° Southwest 144 166 800 -424 Descending Indianapolis Center

Login

Don't have an account? Register now (free) for customized features, flight alerts, and more!